Aérodrome :
LOGIN :

S'inscrire | Disclaimer

   EN    FR    IT 

 










Légende :    VFR   VFR Marginal   IFR   IFR Intensif   IFR Très Intensif
Visi : 
Plafond : 
>= 8 km
>= 3000ft
5 à 8 km
1000 à 3000 ft
1500m à 5 km
500 à 1000 ft
800 à 1500m
200 à 500 ft
< 800m
< 200 ft
Symboles :   Orages  Brouillard  Fortes neiges  Fortes précipitations  Vent > 20 kt
SIGMETs :   Divers  Orages  Givrage  Turbulence  Onde Orograph.  Cendres Volcan.






- Altitude de l'aérodrome : 349 ft
- Code IATA : LPP


EFLP - Lappeenranta

DERNIER METAR :
  • 210220Z AUTO 18007KT 140V230 9999 OVC006 00/M01 Q1007

METARs EXPIRÉS :
  • 210150Z AUTO 18008KT 140V220 9999 OVC005 00/M01 Q1008
  • 210120Z AUTO 18007KT 120V220 9999 BKN005 OVC032 00/M01 Q1008
  • 210050Z AUTO 17006KT 120V210 9999 BKN005 OVC031 00/M01 Q1008
  • 210020Z AUTO 18006KT 140V220 9999 OVC005 M00/M01 Q1009
  • 202350Z AUTO 18007KT 140V230 9999 BKN004 OVC025 M00/M01 Q1009

Prévision TAF périmée.



MET'MAP, la Météo Aéronautique d'un coup d'oeil ! - Copyright ORBIFLY Décembre 2007 - Disclaimer

ORBIFLY MET'MAP TEAM :

Programmation & Développement : Alexandra Zaïnal
Sur une idée originale de : Baudouin d'Aumeries
Assistance à la programmation : Marc-Olivier Méhu
Soutien technique & logistique : Manuel Goepfert

Contact : metmap@orbifly.com




SOURCES & CREDITS :

   NOAA